Data for 07/30/2005

Time Sea-Level Adjusted Pressure Absolute Pressure Temperature Relative Humidity Dew Point   
(mb) (inHg) (mb) (inHg) (C) (F) (%) (C) (F)
00:05 1022 30.18 851 25.13 18.3 64.9 54 9 48.2
00:10 1022 30.18 851 25.13 18.1 64.6 58 9.7 49.5
00:15 1022 30.18 851 25.13 17.6 63.6 57 9.1 48.4
00:20 1022 30.18 851 25.13 17.4 63.2 58 9.1 48.4
00:25 1022 30.18 851 25.13 17.2 63 57 8.7 47.7
00:30 1022 30.18 851 25.13 17.4 63.3 59 9.3 48.7
00:35 1022 30.18 851 25.13 17.5 63.4 56 8.8 47.8
00:40 1022 30.18 851 25.13 17 62.7 58 8.8 47.8
00:45 1022 30.18 851 25.13 16.9 62.3 58 8.5 47.3
00:50 1022 30.18 851 25.13 16.9 62.4 59 9 48.3
00:55 1022 30.18 851 25.13 16.8 62.3 58 8.5 47.3
01:00 1022 30.18 851 25.13 16.7 62.1 57 8.3 47
01:05 1022 30.18 851 25.13 16.8 62.3 57 8.3 46.9
01:10 1022 30.18 851 25.13 16.7 62.1 56 7.9 46.2
01:15 1022 30.18 851 25.13 16.8 62.3 56 8.1 46.6
01:20 1022 30.18 851 25.13 16.7 62 58 8.5 47.2
01:25 1022 30.18 851 25.13 16.3 61.4 60 8.7 47.7
01:30 1022 30.18 851 25.13 15.9 60.7 60 8.3 46.9
01:35 1022 30.18 851 25.13 16.1 61.1 56 7.5 45.5
01:40 1022 30.18 851 25.13 16.8 62.3 54 7.6 45.7
01:45 1022 30.18 851 25.13 16.9 62.3 55 7.9 46.2
01:50 1022 30.18 851 25.13 16.4 61.5 58 8.2 46.8
01:55 1022 30.18 851 25.13 16 60.9 58 7.9 46.2
02:00 1022 30.18 851 25.13 16 60.9 58 7.9 46.3
02:05 1022 30.18 851 25.13 16 60.7 59 8 46.5
02:10 1022 30.18 851 25.13 15.7 60.3 60 8.1 46.6
02:15 1022 30.18 851 25.13 15.5 59.8 61 8.2 46.7
02:20 1022 30.18 851 25.13 15.2 59.3 63 8.1 46.7
02:25 1022 30.18 851 25.13 15.1 59.1 65 8.5 47.4
02:30 1022 30.18 851 25.13 15.1 59.1 63 8.2 46.7
02:35 1022 30.18 851 25.13 14.8 58.7 63 7.8 46.1
02:40 1022 30.18 851 25.13 15 58.9 60 7.3 45.2
02:45 1022 30.18 851 25.13 15.1 59.1 61 7.6 45.8
02:50 1022 30.18 851 25.13 14.7 58.5 62 7.7 45.8
02:55 1022 30.18 851 25.13 14.7 58.5 61 7.4 45.2
03:00 1022 30.18 851 25.13 15 59.1 59 7.2 45
03:05 1022 30.18 851 25.13 15.1 59.1 61 7.6 45.7
03:10 1022 30.18 851 25.13 14.8 58.7 62 7.7 45.9
03:15 1022 30.18 851 25.13 14.8 58.7 62 7.7 45.9
03:20 1022 30.18 851 25.13 15 59.1 58 6.9 44.4
03:25 1022 30.18 851 25.13 15.4 59.7 59 7.5 45.4
03:30 1022 30.18 851 25.13 15.1 59.2 60 7.5 45.4
03:35 1022 30.18 852 25.16 14.7 58.4 62 7.6 45.6
03:40 1022 30.18 852 25.16 14.4 57.8 62 7.2 44.9
03:45 1022 30.18 852 25.16 14.6 58.3 61 7.3 45.1
03:50 1022 30.18 852 25.16 14.8 58.6 60 7.1 44.7
03:55 1022 30.18 852 25.16 14.7 58.5 60 7.2 45
04:00 1022 30.18 852 25.16 14.6 58.3 62 7.4 45.3
04:05 1022 30.18 852 25.16 14.5 58 62 7.5 45.4
04:10 1022 30.18 852 25.16 14.4 57.9 63 7.4 45.4
04:15 1023 30.21 852 25.16 14.7 58.5 64 8 46.3
04:20 1023 30.21 852 25.16 15 59 59 7.1 44.7
04:25 1023 30.21 852 25.16 15.4 59.7 56 6.7 44.1
04:30 1023 30.21 852 25.16 15.7 60.3 55 6.9 44.4
04:35 1023 30.21 852 25.16 15.7 60.3 55 6.9 44.4
04:40 1023 30.21 852 25.16 15.8 60.4 54 6.4 43.6
04:45 1023 30.21 852 25.16 16.3 61.4 53 6.8 44.2
04:50 1023 30.21 852 25.16 16.2 61.2 53 6.7 44
04:55 1023 30.21 852 25.16 16.2 61.1 59 8.1 46.6
05:00 1023 30.21 852 25.16 16 60.7 55 7 44.5
05:05 1023 30.21 852 25.16 15.7 60.2 55 6.8 44.3
05:10 1023 30.21 852 25.16 15.6 60 56 6.9 44.4
05:15 1023 30.21 852 25.16 15.5 59.8 56 6.8 44.2
05:20 1023 30.21 852 25.16 15.7 60.2 55 6.8 44.3
05:25 1023 30.21 852 25.16 15.5 59.9 57 7.2 44.9
05:30 1023 30.21 852 25.16 15.3 59.5 58 7.1 44.8
05:35 1023 30.21 852 25.16 15.5 59.9 59 7.6 45.7
05:40 1023 30.21 852 25.16 15.4 59.8 60 7.7 45.9
05:45 1023 30.21 852 25.16 14.6 58.3 63 7.7 45.9
05:50 1023 30.21 853 25.19 14.5 58.1 61 7.1 44.9
05:55 1023 30.21 853 25.19 14.8 58.6 60 7.2 44.9
06:00 1023 30.21 853 25.19 15.5 60 55 6.6 43.9
06:05 1024 30.24 853 25.19 16.2 61.1 52 6.5 43.7
06:10 1023 30.21 853 25.19 16.7 62.1 51 6.6 43.8
06:15 1024 30.24 853 25.19 16.5 61.7 55 7.5 45.4
06:20 1023 30.21 853 25.19 15.5 59.9 58 7.3 45.2
06:25 1024 30.24 853 25.19 15.3 59.5 59 7.3 45.1
06:30 1024 30.24 853 25.19 15.4 59.7 59 7.5 45.5
06:35 1024 30.24 853 25.19 15.3 59.6 59 7.5 45.5
06:40 1024 30.24 853 25.19 15.2 59.4 60 7.5 45.5
06:45 1024 30.24 853 25.19 15.2 59.4 60 7.5 45.5
06:50 1024 30.24 853 25.19 15.1 59.1 62 7.9 46.2
06:55 1024 30.24 853 25.19 15 59 60 7.5 45.4
07:00 1024 30.24 853 25.19 15.3 59.5 59 7.5 45.5
07:05 1024 30.24 853 25.19 15.7 60.2 56 7 44.7
07:10 1024 30.24 853 25.19 16.3 61.4 55 7.3 45.2
07:15 1024 30.24 853 25.19 16.8 62.2 56 8.1 46.7
07:20 1024 30.24 853 25.19 17.1 62.8 54 7.9 46.2
07:25 1024 30.24 853 25.19 16.8 62.3 56 8.1 46.5
07:30 1024 30.24 853 25.19 16.2 61.2 59 8.2 46.8
07:35 1024 30.24 853 25.19 16.2 61.1 60 8.4 47.2
07:40 1024 30.24 853 25.19 16.1 60.9 69 10.5 51
07:45 1024 30.24 853 25.19 15.6 60.1 62 8.4 47.1
07:50 1024 30.24 853 25.19 15.8 60.5 58 7.7 45.8
07:55 1024 30.24 853 25.19 15.9 60.7 59 8 46.3
08:00 1024 30.24 853 25.19 16.6 61.8 57 8.2 46.8
08:05 1024 30.24 854 25.22 16.6 61.9 56 8 46.4
08:10 1024 30.24 854 25.22 16.8 62.3 56 8 46.4
08:15 1024 30.24 854 25.22 17.3 63.1 55 8.1 46.7
08:20 1025 30.27 854 25.22 17.8 64.1 53 8.2 46.8
08:25 1025 30.27 854 25.22 17.8 64.1 54 8.6 47.5
08:30 1025 30.27 854 25.22 18.2 64.7 53 8.4 47.1
08:35 1025 30.27 854 25.22 18.6 65.5 51 8.4 47.1
08:40 1025 30.27 854 25.22 19.3 66.7 48 8.1 46.5
08:45 1025 30.27 854 25.22 19.9 67.9 48 8.6 47.5
08:50 1025 30.27 854 25.22 20.4 68.8 46 8.6 47.5
08:55 1025 30.27 854 25.22 21.1 70 44 8.6 47.5
09:00 1025 30.27 854 25.22 21.6 70.8 44 8.9 48
09:05 1025 30.27 854 25.22 21.9 71.5 44 9.3 48.8
09:10 1025 30.27 854 25.22 22 71.6 45 9.6 49.3
09:15 1025 30.27 854 25.22 22.4 72.4 45 10 50
09:20 1025 30.27 854 25.22 22.8 73 44 10.1 50.2
09:25 1025 30.27 854 25.22 22.9 73.3 45 10.7 51.2
09:30 1025 30.27 854 25.22 22.8 73 43 9.6 49.2
09:35 1025 30.27 854 25.22 22.8 73 44 10.1 50.2
09:40 1025 30.27 854 25.22 22.3 72.1 45 9.8 49.7
09:45 1025 30.27 854 25.22 21.8 71.3 46 9.8 49.6
09:50 1025 30.27 854 25.22 21.9 71.4 46 10.1 50.1
09:55 1025 30.27 854 25.22 22.3 72.1 43 9.2 48.6
10:00 1025 30.27 854 25.22 23.2 73.7 43 10 49.9
10:05 1025 30.27 854 25.22 23.5 74.4 43 10.3 50.5
10:10 1025 30.27 854 25.22 23.7 74.6 42 10 50.1
10:15 1025 30.27 854 25.22 24 75.1 39 9.5 49.1
10:20 1025 30.27 854 25.22 24.2 75.5 37 9 48.2
10:25 1025 30.27 854 25.22 24.4 76 38 9.4 49
10:30 1025 30.27 854 25.22 24 75.2 40 9.8 49.6
10:35 1025 30.27 854 25.22 23.6 74.4 41 9.9 49.8
10:40 1025 30.27 854 25.22 23.7 74.7 42 10.1 50.2
10:45 1025 30.27 854 25.22 23.4 74.2 45 11 51.9
10:50 1025 30.27 854 25.22 23.6 74.4 42 10.2 50.3
10:55 1025 30.27 854 25.22 23.5 74.2 39 8.8 47.8
11:00 1025 30.27 854 25.22 23.9 74.9 44 11.2 52.1
11:05 1025 30.27 854 25.22 23.9 74.9 38 9 48.1
11:10 1025 30.27 854 25.22 24.3 75.8 36 8.5 47.3
11:15 1025 30.27 854 25.22 25.4 77.7 34 8.7 47.7
11:20 1025 30.27 854 25.22 25.1 77.2 35 8.7 47.6
11:25 1025 30.27 854 25.22 25.2 77.3 33 8.2 46.8
11:30 1025 30.27 854 25.22 25.5 77.8 33 8.2 46.8
11:35 1025 30.27 854 25.22 25.7 78.3 33 8.6 47.4
11:40 1025 30.27 854 25.22 26.1 79 32 8.3 46.9
11:45 1025 30.27 854 25.22 26.8 80.3 30 8.1 46.5
11:50 1025 30.27 854 25.22 27.7 81.8 29 8.5 47.3
11:55 1025 30.27 854 25.22 27.9 82.2 31 9.4 49
12:00 1025 30.27 854 25.22 27.5 81.4 29 8.4 47.1
12:05 1025 30.27 854 25.22 27.6 81.7 30 8.8 47.8
12:10 1025 30.27 854 25.22 27.8 82 29 8.3 47
12:15 1025 30.27 854 25.22 28.5 83.4 28 8.5 47.2
12:20 1025 30.27 854 25.22 29.1 84.4 27 8.4 47.1
12:25 1025 30.27 854 25.22 29.4 84.8 26 8.2 46.7
12:30 1025 30.27 854 25.22 29.5 85.1 27 8.7 47.7
12:35 1025 30.27 854 25.22 29 84.2 28 8.7 47.7
12:40 1025 30.27 854 25.22 29 84.1 26 7.7 45.8
12:45 1025 30.27 854 25.22 29.1 84.4 26 8.2 46.7
12:50 1025 30.27 854 25.22 29 84.2 23 5.9 42.6
12:55 1025 30.27 854 25.22 29.4 84.9 19 3.3 38
13:00 1025 30.27 854 25.22 29.5 85 20 4.6 40.3
13:05 1025 30.27 854 25.22 29.8 85.6 18 3.1 37.5
13:10 1025 30.27 854 25.22 29.6 85.3 18 3 37.4
13:15 1025 30.27 854 25.22 29.8 85.7 15 1.2 34.1
13:20 1025 30.27 854 25.22 29.8 85.7 16 1.7 35
13:25 1025 30.27 854 25.22 30 86.1 19 4 39.1
13:30 1025 30.27 854 25.22 30.2 86.4 20 5.4 41.7
13:35 1025 30.27 854 25.22 30.5 86.8 18 3.6 38.4
13:40 1025 30.27 854 25.22 30.5 86.8 18 3.8 38.8
13:45 1025 30.27 854 25.22 29.9 85.8 18 3.6 38.4
13:50 1025 30.27 854 25.22 30.4 86.7 16 2 35.5
13:55 1024 30.24 854 25.22 30.5 86.8 18 3.6 38.5
14:00 1024 30.24 854 25.22 30.5 86.9 18 3.7 38.6
14:05 1024 30.24 854 25.22 30.1 86.2 16 1.7 35
14:10 1024 30.24 854 25.22 29.3 84.8 18 3 37.3
14:15 1024 30.24 854 25.22 29.5 85.1 18 3 37.3
14:20 1024 30.24 854 25.22 30.2 86.3 18 3.3 38
14:25 1024 30.24 853 25.19 30.6 87.2 18 4.2 39.6
14:30 1024 30.24 853 25.19 30.1 86.3 19 4.4 39.9
14:35 1024 30.24 853 25.19 29.9 85.9 16 2.1 35.8
14:40 1024 30.24 853 25.19 30.3 86.6 16 2.3 36.1
14:45 1024 30.24 853 25.19 30.4 86.7 16 1.9 35.5
14:50 1024 30.24 853 25.19 30.5 86.9 15 1.2 34.1
14:55 1024 30.24 853 25.19 30.2 86.3 14 0.3 32.6
15:00 1024 30.24 853 25.19 30.8 87.5 14 0.9 33.6
15:05 1024 30.24 853 25.19 29.9 85.7 15 0.4 32.8
15:10 1024 30.24 853 25.19 29.5 85.2 15 0.2 32.4
15:15 1024 30.24 853 25.19 30.2 86.4 14 0.5 32.9
15:20 1024 30.24 853 25.19 30.9 87.6 14 0.4 32.7
15:25 1024 30.24 853 25.19 31.4 88.5 13 0.3 32.6
15:30 1023 30.21 853 25.19 31.1 88 14 0.9 33.6
15:35 1023 30.21 853 25.19 30.9 87.5 14 0.7 33.3
15:40 1023 30.21 853 25.19 30.7 87.3 15 1 33.9
15:45 1023 30.21 853 25.19 31 87.8 13 0.2 32.4
15:50 1023 30.21 852 25.16 31.2 88.2 14 1.4 34.4
15:55 1023 30.21 852 25.16 31.1 88 15 1.4 34.6
16:00 1023 30.21 852 25.16 31.1 88 15 1.7 35.1
16:05 1023 30.21 852 25.16 31.5 88.6 14 1.3 34.3
16:10 1023 30.21 852 25.16 31.3 88.3 15 1.9 35.5
16:15 1023 30.21 852 25.16 31.6 88.8 14 1.4 34.5
16:20 1023 30.21 852 25.16 31.3 88.3 15 1.8 35.3
16:25 1023 30.21 852 25.16 31.1 88 14 1.2 34.2
16:30 1023 30.21 852 25.16 30.4 86.6 15 1.5 34.8
16:35 1023 30.21 852 25.16 30.6 87 15 1.4 34.6
16:40 1023 30.21 852 25.16 31.1 87.9 15 1.8 35.3
16:45 1023 30.21 852 25.16 31.3 88.3 15 2.1 35.8
16:50 1023 30.21 852 25.16 31.2 88.2 15 1.9 35.3
16:55 1023 30.21 852 25.16 31 87.8 15 1.7 35
17:00 1023 30.21 852 25.16 30.1 86.1 16 1.8 35.2
17:05 1023 30.21 852 25.16 30.7 87.3 14 1 33.7
17:10 1023 30.21 852 25.16 31.1 88 14 1.2 34.2
17:15 1023 30.21 852 25.16 30.4 86.7 15 1.2 34.1
17:20 1023 30.21 852 25.16 30.4 86.6 15 1 33.9
17:25 1023 30.21 852 25.16 30.8 87.4 15 1.3 34.3
17:30 1023 30.21 852 25.16 31 87.9 15 1.4 34.4
17:35 1023 30.21 852 25.16 30.2 86.4 15 1.2 34.2
17:40 1023 30.21 852 25.16 30.8 87.4 15 1.6 34.9
17:45 1023 30.21 852 25.16 31.3 88.3 15 1.5 34.7
17:50 1023 30.21 852 25.16 31.4 88.5 14 1.5 34.7
17:55 1023 30.21 852 25.16 31.2 88.2 15 1.5 34.7
18:00 1023 30.21 852 25.16 30.3 86.6 15 0.9 33.7
18:05 1023 30.21 852 25.16 30.1 86.2 16 1.5 34.6
18:10 1022 30.18 852 25.16 29.9 85.8 16 1.4 34.4
18:15 1022 30.18 852 25.16 30 86 15 1.2 34.2
18:20 1022 30.18 852 25.16 30.1 86.3 15 1 33.8
18:25 1022 30.18 852 25.16 30.6 87 16 1.9 35.5
18:30 1022 30.18 852 25.16 31.1 88 15 1.5 34.8
18:35 1022 30.18 852 25.16 31.3 88.3 15 2.1 35.7
18:40 1022 30.18 851 25.13 30.9 87.5 15 1.8 35.2
18:45 1022 30.18 851 25.13 30.7 87.2 15 1.4 34.5
18:50 1022 30.18 851 25.13 30.1 86.1 15 1.4 34.5
18:55 1022 30.18 851 25.13 29.7 85.5 16 1.5 34.6
19:00 1022 30.18 851 25.13 30.1 86.3 15 1.1 33.9
19:05 1022 30.18 851 25.13 30.3 86.5 15 1 33.8
19:10 1022 30.18 851 25.13 30 85.9 15 1.3 34.3
19:15 1022 30.18 851 25.13 29.3 84.7 16 1.4 34.5
19:20 1022 30.18 851 25.13 29 84.2 18 2.9 37.2
19:25 1022 30.18 851 25.13 29.2 84.6 16 1.2 34.1
19:30 1022 30.18 851 25.13 29.1 84.4 16 0.9 33.6
19:35 1022 30.18 851 25.13 29 84.3 18 2.3 36.1
19:40 1022 30.18 851 25.13 29 84.2 16 0.9 33.6
19:45 1022 30.18 851 25.13 28.9 84 16 0.6 33.1
19:50 1022 30.18 851 25.13 28.9 84 16 0.7 33.2
19:55 1022 30.18 851 25.13 28.9 84 16 0.8 33.5
20:00 1022 30.18 851 25.13 28.7 83.7 20 4 39.3
20:05 1022 30.18 851 25.13 28.7 83.6 21 4.5 40.1
20:10 1022 30.18 851 25.13 28.2 82.8 24 6 42.8
20:15 1022 30.18 851 25.13 27.8 82.1 27 7.6 45.7
20:20 1022 30.18 851 25.13 27.6 81.7 28 7.6 45.7
20:25 1022 30.18 852 25.16 27.4 81.4 26 6.4 43.5
20:30 1022 30.18 852 25.16 27.2 80.9 31 9 48.2
20:35 1022 30.18 852 25.16 26.8 80.2 33 9.4 48.8
20:40 1022 30.18 852 25.16 26.1 79 33 8.8 47.8
20:45 1023 30.21 852 25.16 25.5 77.9 35 9.1 48.3
20:50 1023 30.21 852 25.16 25.1 77.2 38 10 49.9
20:55 1023 30.21 852 25.16 24.6 76.2 41 10.7 51.2
21:00 1023 30.21 852 25.16 23.6 74.5 42 10.2 50.3
21:05 1023 30.21 852 25.16 23.1 73.5 41 9.4 48.9
21:10 1023 30.21 852 25.16 22.5 72.6 41 8.8 47.8
21:15 1023 30.21 852 25.16 22.2 72 38 7.3 45.2
21:20 1023 30.21 852 25.16 22.7 72.8 38 7.7 45.9
21:25 1023 30.21 852 25.16 22.5 72.5 31 4.9 40.8
21:30 1023 30.21 852 25.16 22.6 72.7 32 5.4 41.6
21:35 1023 30.21 852 25.16 22.6 72.6 32 5.2 41.4
21:40 1023 30.21 852 25.16 22.3 72.1 33 5.4 41.8
21:45 1023 30.21 852 25.16 22 71.5 33 5.3 41.5
21:50 1023 30.21 852 25.16 21.8 71.2 33 4.9 40.8
21:55 1023 30.21 852 25.16 21.7 71 33 5.1 41.2
22:00 1023 30.21 852 25.16 21.5 70.6 34 5.2 41.4
22:05 1023 30.21 852 25.16 21.3 70.3 35 5.4 41.7
22:10 1023 30.21 852 25.16 21 69.8 35 5.2 41.4
22:15 1023 30.21 852 25.16 20.8 69.4 36 5.3 41.5
22:20 1023 30.21 852 25.16 20.6 69 35 5 40.9
22:25 1023 30.21 853 25.19 20.5 68.8 38 6 42.8
22:30 1023 30.21 852 25.16 20.3 68.5 36 5.1 41.1
22:35 1023 30.21 853 25.19 20.3 68.6 35 4.7 40.4
22:40 1023 30.21 853 25.19 20.5 69 34 4.5 40.1
22:45 1023 30.21 853 25.19 20.7 69.2 35 4.8 40.6
22:50 1023 30.21 853 25.19 20.6 69.1 34 4.5 40.2
22:55 1023 30.21 853 25.19 20.8 69.5 33 4.3 39.7
23:00 1023 30.21 853 25.19 21.1 69.9 33 4.3 39.7
23:05 1023 30.21 853 25.19 20.8 69.5 34 4.4 40
23:10 1023 30.21 853 25.19 20.6 69 34 4.1 39.5
23:15 1023 30.21 853 25.19 20.7 69.2 33 3.9 39
23:20 1023 30.21 853 25.19 20.6 69.1 34 4.3 39.7
23:25 1023 30.21 853 25.19 20.1 68.2 35 4.3 39.8
23:30 1023 30.21 853 25.19 19.9 67.8 38 5.2 41.4
23:35 1023 30.21 853 25.19 19.6 67.4 37 4.9 40.8
23:40 1023 30.21 853 25.19 19.4 67 40 5.7 42.3
23:45 1023 30.21 853 25.19 19.4 66.9 39 5.2 41.4
23:50 1023 30.21 853 25.19 19 66.2 38 4.7 40.4
23:55 1023 30.21 853 25.19 19.2 66.5 41 5.6 42.2
24:00 1024 30.24 853 25.19 19.6 67.2 36 4.4 39.9